Arleta, California
Current Conditions -  °F | °C
As of 11:53 PM on Thursday 30 Oct 2014 (Local Time) from KBUR Reporting Station
Clear Clear  
Wind Chill: 64°   Ceiling: Unl
Heat Index: 64°   Visibility: 10mi
Dew Point: 59°   Wind: 6mph
Humidity: 84%   Direction: 90°E
Pressure: 29.96"   Gusts: NA
Location:  34.2574°N, 118.255°W
Report Text: KBUR 310653Z 09005KT 10SM CLR 18/15 A2996 RMK AO2 SLP133 T01780150
Loading
Personal Weather Stations






























Interactive Weather Map
Tropical Storm Tracking
New forecast layout! Learn more

10-Day Weather Forecast

Advertisements
Track Severe Weather on mobile